createdAt,value
2019-03-23T00:02:06.778Z,73.20
2019-03-23T00:04:13.519Z,73.55
2019-03-23T00:06:30.248Z,71.42
2019-03-23T00:08:28.983Z,67.00
2019-03-23T00:10:35.727Z,69.05
2019-03-23T00:12:42.393Z,69.95
2019-03-23T00:14:49.160Z,66.75
2019-03-23T00:16:55.924Z,73.45
2019-03-23T00:19:02.685Z,66.10
2019-03-23T00:21:09.385Z,56.77
2019-03-23T00:23:16.053Z,49.30
2019-03-23T00:25:22.731Z,65.75
2019-03-23T00:27:29.435Z,41.55
2019-03-23T00:29:36.168Z,59.55
2019-03-23T00:31:42.822Z,53.20
2019-03-23T00:33:49.618Z,57.10
2019-03-23T00:35:56.303Z,53.33
2019-03-23T00:38:03.043Z,33.38
2019-03-23T00:40:11.748Z,54.48
2019-03-23T00:42:18.521Z,58.13
2019-03-23T00:44:25.297Z,63.50
2019-03-23T00:46:32.005Z,53.00
2019-03-23T00:48:38.678Z,51.18
2019-03-23T00:50:46.356Z,81.42
2019-03-23T00:52:53.223Z,57.43
2019-03-23T00:54:59.894Z,71.45
2019-03-23T00:57:06.556Z,82.25
2019-03-23T00:59:13.349Z,83.33
2019-03-23T01:01:20.923Z,77.25
2019-03-23T01:03:27.595Z,81.20
2019-03-23T01:05:34.286Z,98.78
2019-03-23T01:07:41.042Z,79.07
2019-03-23T01:09:47.707Z,96.95
2019-03-23T01:11:54.430Z,71.75
2019-03-23T01:14:01.114Z,64.85
2019-03-23T01:16:07.972Z,65.78
2019-03-23T01:18:14.678Z,62.05
2019-03-23T01:20:21.333Z,58.05
2019-03-23T01:22:28.010Z,65.62
2019-03-23T01:24:34.698Z,78.85
2019-03-23T01:26:41.365Z,82.95
2019-03-23T01:28:48.140Z,84.15
2019-03-23T01:30:54.838Z,87.33
2019-03-23T01:33:01.523Z,75.12
2019-03-23T01:35:09.580Z,84.65
2019-03-23T01:37:16.266Z,84.42
2019-03-23T01:39:22.933Z,92.72
2019-03-23T01:41:29.679Z,84.32
2019-03-23T01:43:36.421Z,76.75
2019-03-23T01:45:43.191Z,83.82
2019-03-23T01:47:49.864Z,85.55
2019-03-23T01:49:56.553Z,87.75
2019-03-23T01:52:03.238Z,88.67
2019-03-23T01:54:09.993Z,86.87
2019-03-23T01:56:16.665Z,89.92
2019-03-23T01:58:23.338Z,90.07
2019-03-23T02:00:31.007Z,88.52
2019-03-23T02:02:37.779Z,92.78
2019-03-23T02:04:44.449Z,86.45
2019-03-23T02:06:51.127Z,86.97
2019-03-23T02:08:57.819Z,72.15
2019-03-23T02:11:05.675Z,69.00
2019-03-23T02:13:12.357Z,70.03
2019-03-23T02:15:19.328Z,60.35
2019-03-23T02:17:26.000Z,71.97
2019-03-23T02:19:32.682Z,70.28
2019-03-23T02:21:39.524Z,71.77
2019-03-23T02:23:46.182Z,71.97
2019-03-23T02:25:52.921Z,63.25
2019-03-23T02:27:59.893Z,69.72
2019-03-23T02:30:11.089Z,63.15
2019-03-23T02:32:17.812Z,59.03
2019-03-23T02:34:24.515Z,63.30
2019-03-23T02:36:31.190Z,55.65
2019-03-23T02:38:37.874Z,58.60
2019-03-23T02:40:44.756Z,64.92
2019-03-23T02:42:51.429Z,61.40
2019-03-23T02:44:58.119Z,63.25
2019-03-23T02:47:04.883Z,63.45
2019-03-23T02:49:11.546Z,63.35
2019-03-23T02:51:18.224Z,64.72
2019-03-23T02:53:24.930Z,58.78
2019-03-23T02:55:31.683Z,59.90
2019-03-23T02:57:38.370Z,50.35
2019-03-23T02:59:45.092Z,54.65
2019-03-23T03:01:51.828Z,49.60
2019-03-23T03:03:58.507Z,51.88
2019-03-23T03:06:05.277Z,63.10
2019-03-23T03:08:11.951Z,51.25
2019-03-23T03:10:38.588Z,53.40
2019-03-23T03:12:45.325Z,50.33
2019-03-23T03:14:53.006Z,46.85
2019-03-23T03:16:59.678Z,47.75
2019-03-23T03:19:06.389Z,47.53
2019-03-23T03:21:13.065Z,37.28
2019-03-23T03:23:19.750Z,38.28
2019-03-23T03:25:26.648Z,37.10
2019-03-23T03:27:33.337Z,33.53
2019-03-23T03:29:40.011Z,33.80
2019-03-23T03:31:46.710Z,35.95
2019-03-23T03:33:53.482Z,30.08
2019-03-23T03:36:03.227Z,31.62
2019-03-23T03:38:09.913Z,34.10
2019-03-23T03:40:16.803Z,33.63
2019-03-23T03:42:23.572Z,31.68
2019-03-23T03:44:30.349Z,36.20
2019-03-23T03:46:37.093Z,37.08
2019-03-23T03:48:43.768Z,34.73
2019-03-23T03:50:50.542Z,40.08
2019-03-23T03:52:57.228Z,35.35
2019-03-23T03:55:04.698Z,34.48
2019-03-23T03:57:12.404Z,35.83
2019-03-23T03:59:19.168Z,37.88
2019-03-23T04:01:25.844Z,37.67
2019-03-23T04:03:32.541Z,33.50
2019-03-23T04:05:39.211Z,32.45
2019-03-23T04:07:47.597Z,35.75
2019-03-23T04:09:54.408Z,36.17
2019-03-23T04:12:01.279Z,31.55
2019-03-23T04:14:09.426Z,31.75
2019-03-23T04:16:16.127Z,31.63
2019-03-23T04:18:23.226Z,30.80
2019-03-23T04:20:29.903Z,25.45
2019-03-23T04:22:36.668Z,29.90
2019-03-23T04:24:43.422Z,29.30
2019-03-23T04:26:50.091Z,36.70
2019-03-23T04:28:56.810Z,27.75
2019-03-23T04:31:03.507Z,29.75
2019-03-23T04:33:10.266Z,24.67
2019-03-23T04:35:16.964Z,29.60
2019-03-23T04:37:23.714Z,25.00
2019-03-23T04:39:30.393Z,25.70
2019-03-23T04:41:37.169Z,26.77
2019-03-23T04:43:44.983Z,25.95
2019-03-23T04:45:51.650Z,31.80
2019-03-23T04:47:58.416Z,31.93
2019-03-23T04:50:09.343Z,28.70
2019-03-23T04:52:16.016Z,28.45
2019-03-23T04:54:22.715Z,24.02
2019-03-23T04:56:29.382Z,25.88
2019-03-23T04:58:36.135Z,29.72
2019-03-23T05:00:42.827Z,29.55
2019-03-23T05:02:49.498Z,30.12
2019-03-23T05:04:56.220Z,30.12
2019-03-23T05:07:02.939Z,26.95
2019-03-23T05:09:10.604Z,36.80
2019-03-23T05:11:17.278Z,35.85
2019-03-23T05:13:23.975Z,29.45
2019-03-23T05:15:30.712Z,32.90
2019-03-23T05:17:37.888Z,30.52
2019-03-23T05:19:44.569Z,25.20
2019-03-23T05:21:51.313Z,25.27
2019-03-23T05:23:57.982Z,26.85
2019-03-23T05:26:04.669Z,25.32
2019-03-23T05:28:11.355Z,22.45
2019-03-23T05:30:18.020Z,26.42
2019-03-23T05:32:24.793Z,30.92
2019-03-23T05:34:31.473Z,24.27
2019-03-23T05:36:38.328Z,25.77
2019-03-23T05:38:45.103Z,31.50
2019-03-23T05:40:51.790Z,29.70
2019-03-23T05:42:58.465Z,26.30
2019-03-23T05:45:06.665Z,34.60
2019-03-23T05:47:13.341Z,37.17
2019-03-23T05:49:20.024Z,29.63
2019-03-23T05:51:26.732Z,35.70
2019-03-23T05:53:33.406Z,31.27
2019-03-23T05:55:40.094Z,29.45
2019-03-23T05:57:46.777Z,24.12
2019-03-23T05:59:53.452Z,31.17
2019-03-23T06:02:00.238Z,21.65
2019-03-23T06:04:06.923Z,24.87
2019-03-23T06:06:13.668Z,22.50
2019-03-23T06:08:20.412Z,23.05
2019-03-23T06:10:27.123Z,22.62
2019-03-23T06:12:33.801Z,25.50
2019-03-23T06:14:40.472Z,19.82
2019-03-23T06:16:47.212Z,27.25
2019-03-23T06:18:53.879Z,20.27
2019-03-23T06:21:00.564Z,19.12
2019-03-23T06:23:07.255Z,20.17
2019-03-23T06:25:14.015Z,22.55
2019-03-23T06:27:20.685Z,19.65
2019-03-23T06:29:27.446Z,21.75
2019-03-23T06:31:34.185Z,16.95
2019-03-23T06:33:40.853Z,18.90
2019-03-23T06:35:47.552Z,21.02
2019-03-23T06:37:54.221Z,17.20
2019-03-23T06:40:00.890Z,16.73
2019-03-23T06:42:07.571Z,17.50
2019-03-23T06:44:14.300Z,16.40
2019-03-23T06:46:21.734Z,16.60
2019-03-23T06:48:28.411Z,17.37
2019-03-23T06:50:35.078Z,13.95
2019-03-23T06:52:41.743Z,20.10
2019-03-23T06:54:48.443Z,17.82
2019-03-23T06:56:55.105Z,15.72
2019-03-23T06:59:01.793Z,19.12
2019-03-23T07:01:08.472Z,14.45
2019-03-23T07:03:15.217Z,14.85
2019-03-23T07:05:21.899Z,17.32
2019-03-23T07:07:28.591Z,14.73
2019-03-23T07:09:35.327Z,13.60
2019-03-23T07:11:42.007Z,14.95
2019-03-23T07:13:48.690Z,16.50
2019-03-23T07:15:55.352Z,14.70
2019-03-23T07:18:02.096Z,17.57
2019-03-23T07:20:14.502Z,12.37
2019-03-23T07:22:21.168Z,15.32
2019-03-23T07:24:27.854Z,17.25
2019-03-23T07:26:34.591Z,13.05
2019-03-23T07:28:41.263Z,13.85
2019-03-23T07:30:47.932Z,17.12
2019-03-23T07:32:54.625Z,10.78
2019-03-23T07:35:01.296Z,12.33
2019-03-23T07:37:09.132Z,14.85
2019-03-23T07:39:26.533Z,12.10
2019-03-23T07:41:24.284Z,13.90
2019-03-23T07:43:30.975Z,13.18
2019-03-23T07:45:37.652Z,12.03
2019-03-23T07:47:44.427Z,13.48
2019-03-23T07:49:51.180Z,12.15
2019-03-23T07:51:58.873Z,12.00
2019-03-23T07:54:05.605Z,14.65
2019-03-23T07:56:12.275Z,11.08
2019-03-23T07:58:19.033Z,16.52
2019-03-23T08:00:25.692Z,14.30
2019-03-23T08:02:32.359Z,17.87
2019-03-23T08:04:39.052Z,15.38
2019-03-23T08:06:45.723Z,13.22
2019-03-23T08:08:52.472Z,11.63
2019-03-23T08:10:59.230Z,11.50
2019-03-23T08:13:06.106Z,14.13
2019-03-23T08:15:12.786Z,14.87
2019-03-23T08:17:19.550Z,17.25
2019-03-23T08:19:26.290Z,16.85
2019-03-23T08:23:48.267Z,13.98
2019-03-23T08:25:54.924Z,12.90
2019-03-23T08:28:01.610Z,15.50
2019-03-23T08:30:08.504Z,13.35
2019-03-23T08:32:15.244Z,13.83
2019-03-23T08:34:21.980Z,13.53
2019-03-23T08:36:28.756Z,14.58
2019-03-23T08:38:35.430Z,17.25
2019-03-23T08:40:42.183Z,11.88
2019-03-23T08:42:48.881Z,20.02
2019-03-23T08:44:55.548Z,37.55
2019-03-23T08:47:02.216Z,12.85
2019-03-23T08:49:08.999Z,11.00
2019-03-23T08:51:15.677Z,9.98
2019-03-23T08:53:22.335Z,11.53
2019-03-23T08:55:29.054Z,9.65
2019-03-23T08:57:35.758Z,13.38
2019-03-23T08:59:42.424Z,9.08
2019-03-23T09:01:49.122Z,10.05
2019-03-23T09:03:55.800Z,7.50
2019-03-23T09:06:02.473Z,12.80
2019-03-23T09:08:09.179Z,9.33
2019-03-23T09:10:15.849Z,9.78
2019-03-23T09:12:22.513Z,10.70
2019-03-23T09:14:29.216Z,9.68
2019-03-23T09:16:35.877Z,8.30
2019-03-23T09:18:42.541Z,8.20
2019-03-23T09:20:49.253Z,8.90
2019-03-23T09:22:55.897Z,9.65
2019-03-23T09:25:02.644Z,11.55
2019-03-23T09:27:09.343Z,7.78
2019-03-23T09:29:16.012Z,10.03
2019-03-23T09:31:22.679Z,10.08
2019-03-23T09:33:29.361Z,7.33
2019-03-23T09:35:39.368Z,8.03
2019-03-23T09:37:44.418Z,8.05
2019-03-23T09:39:51.212Z,7.45
2019-03-23T09:41:57.860Z,9.93
2019-03-23T09:44:04.564Z,9.93
2019-03-23T09:46:11.302Z,14.03
2019-03-23T09:48:17.979Z,8.38
2019-03-23T09:50:24.672Z,8.43
2019-03-23T09:52:31.423Z,9.80
2019-03-23T09:54:38.189Z,8.93
2019-03-23T09:56:44.856Z,6.87
2019-03-23T09:58:51.554Z,8.88
2019-03-23T10:00:58.213Z,10.43
2019-03-23T10:03:04.949Z,6.90
2019-03-23T10:05:11.631Z,6.37
2019-03-23T10:07:18.294Z,8.73
2019-03-23T10:09:24.969Z,14.15
2019-03-23T10:11:31.750Z,7.35
2019-03-23T10:13:38.414Z,9.53
2019-03-23T10:15:45.082Z,11.65
2019-03-23T10:17:51.800Z,8.38
2019-03-23T10:19:58.458Z,9.65
2019-03-23T10:22:05.118Z,8.68
2019-03-23T10:24:11.826Z,10.13
2019-03-23T10:26:18.495Z,7.47
2019-03-23T10:28:25.159Z,8.00
2019-03-23T10:30:31.858Z,9.53
2019-03-23T10:32:38.526Z,7.67
2019-03-23T10:34:45.191Z,10.50
2019-03-23T10:36:52.003Z,7.75
2019-03-23T10:38:58.738Z,9.95
2019-03-23T10:41:05.411Z,12.33
2019-03-23T10:43:12.177Z,9.73
2019-03-23T10:45:20.015Z,7.35
2019-03-23T10:47:26.721Z,7.47
2019-03-23T10:49:33.483Z,8.35
2019-03-23T10:51:40.187Z,7.95
2019-03-23T10:53:46.851Z,7.45
2019-03-23T10:55:53.540Z,5.50
2019-03-23T10:58:00.222Z,6.95
2019-03-23T11:00:11.691Z,6.45
2019-03-23T11:02:18.388Z,8.08
2019-03-23T11:04:25.064Z,7.12
2019-03-23T11:06:32.012Z,6.08
2019-03-23T11:08:38.703Z,5.55
2019-03-23T11:10:45.516Z,5.90
2019-03-23T11:12:52.172Z,6.30
2019-03-23T11:14:58.868Z,4.65
2019-03-23T11:17:05.532Z,7.70
2019-03-23T11:19:13.633Z,4.95
2019-03-23T11:21:20.665Z,9.15
2019-03-23T11:23:27.408Z,7.45
2019-03-23T11:25:34.066Z,7.55
2019-03-23T11:27:40.760Z,6.20
2019-03-23T11:29:47.506Z,7.15
2019-03-23T11:31:54.167Z,6.92
2019-03-23T11:34:00.849Z,8.75
2019-03-23T11:36:07.556Z,5.30
2019-03-23T11:38:14.220Z,7.55
2019-03-23T11:40:20.940Z,8.53
2019-03-23T11:42:27.677Z,8.65
2019-03-23T11:44:34.462Z,7.75
2019-03-23T11:46:41.210Z,8.73
2019-03-23T11:48:47.885Z,8.48
2019-03-23T11:50:54.594Z,7.58
2019-03-23T11:53:01.346Z,8.05
2019-03-23T11:55:09.883Z,5.33
2019-03-23T11:57:16.549Z,8.80
2019-03-23T11:59:23.242Z,10.53
2019-03-23T12:01:29.984Z,6.92
2019-03-23T12:03:36.640Z,8.03
2019-03-23T12:05:43.338Z,6.60
2019-03-23T12:07:50.003Z,8.53
2019-03-23T12:09:56.750Z,6.40
2019-03-23T12:12:03.625Z,6.80
2019-03-23T12:14:10.284Z,6.00
2019-03-23T12:16:16.941Z,6.90
2019-03-23T12:18:23.635Z,9.58
2019-03-23T12:20:30.294Z,6.58
2019-03-23T12:22:37.078Z,6.10
2019-03-23T12:24:43.835Z,5.85
2019-03-23T12:26:50.552Z,6.75
2019-03-23T12:28:57.210Z,6.67
2019-03-23T12:31:04.033Z,6.50
2019-03-23T12:33:10.698Z,5.72
2019-03-23T12:35:17.364Z,5.45
2019-03-23T12:37:24.164Z,6.08
2019-03-23T12:39:30.896Z,7.20
2019-03-23T12:41:37.559Z,6.95
2019-03-23T12:43:44.233Z,5.53
2019-03-23T12:45:51.905Z,4.70
2019-03-23T12:47:58.565Z,5.87
2019-03-23T12:50:08.221Z,9.20
2019-03-23T12:52:16.412Z,9.43
2019-03-23T12:54:23.082Z,7.37
2019-03-23T12:56:29.779Z,6.05
2019-03-23T12:58:36.645Z,6.10
2019-03-23T13:00:43.321Z,5.87
2019-03-23T13:02:50.056Z,6.33
2019-03-23T13:04:56.750Z,7.08
2019-03-23T13:07:03.427Z,6.60
2019-03-23T13:09:10.123Z,5.17
2019-03-23T13:11:23.373Z,6.45
2019-03-23T13:13:25.297Z,6.70
2019-03-23T13:15:32.215Z,6.97
2019-03-23T13:17:38.970Z,6.20
2019-03-23T13:19:45.630Z,5.42
2019-03-23T13:21:52.397Z,6.12
2019-03-23T13:23:59.058Z,5.03
2019-03-23T13:26:05.816Z,6.22
2019-03-23T13:28:12.495Z,5.22
2019-03-23T13:30:19.558Z,6.47
2019-03-23T13:32:26.223Z,7.60
2019-03-23T13:34:32.902Z,6.10
2019-03-23T13:36:39.580Z,8.20
2019-03-23T13:38:46.245Z,7.00
2019-03-23T13:40:52.925Z,8.58
2019-03-23T13:42:59.584Z,6.30
2019-03-23T13:45:10.057Z,9.08
2019-03-23T13:47:16.902Z,7.12
2019-03-23T13:49:23.528Z,5.87
2019-03-23T13:51:30.241Z,7.65
2019-03-23T13:53:37.796Z,5.50
2019-03-23T13:55:44.544Z,7.50
2019-03-23T13:57:51.205Z,8.65
2019-03-23T13:59:57.882Z,6.22
2019-03-23T14:02:04.613Z,6.92
2019-03-23T14:04:12.349Z,7.15
2019-03-23T14:06:19.029Z,8.03
2019-03-23T14:08:26.885Z,6.12
2019-03-23T14:10:33.660Z,9.30
2019-03-23T14:12:40.344Z,8.43
2019-03-23T14:14:48.084Z,6.90
2019-03-23T14:16:54.806Z,6.78
2019-03-23T14:19:01.486Z,7.83
2019-03-23T14:21:08.157Z,11.80
2019-03-23T14:23:14.815Z,9.80
2019-03-23T14:25:21.498Z,6.40
2019-03-23T14:27:28.152Z,4.92
2019-03-23T14:29:34.822Z,6.40
2019-03-23T14:31:41.504Z,7.55
2019-03-23T14:33:48.156Z,8.60
2019-03-23T14:35:54.818Z,5.28
2019-03-23T14:38:01.508Z,6.47
2019-03-23T14:40:08.764Z,5.72
2019-03-23T14:42:15.497Z,8.13
2019-03-23T14:44:22.183Z,6.30
2019-03-23T14:46:28.852Z,6.17
2019-03-23T14:48:36.698Z,7.97
2019-03-23T14:50:43.377Z,7.62
2019-03-23T14:52:50.037Z,8.43
2019-03-23T14:54:56.725Z,6.05
2019-03-23T14:57:03.423Z,7.87
2019-03-23T14:59:10.080Z,6.65
2019-03-23T15:01:16.749Z,7.60
2019-03-23T15:03:23.428Z,7.05
2019-03-23T15:05:30.186Z,10.60
2019-03-23T15:07:36.943Z,11.63
2019-03-23T15:09:43.644Z,9.68
2019-03-23T15:11:50.308Z,9.78
2019-03-23T15:13:56.973Z,8.50
2019-03-23T15:16:03.678Z,9.68
2019-03-23T15:18:10.346Z,9.25
2019-03-23T15:20:17.014Z,12.47
2019-03-23T15:22:23.722Z,11.12
2019-03-23T15:24:30.388Z,11.00
2019-03-23T15:26:37.115Z,9.98
2019-03-23T15:28:43.807Z,10.55
2019-03-23T15:30:50.910Z,10.30
2019-03-23T15:32:57.761Z,12.25
2019-03-23T15:35:06.880Z,10.40
2019-03-23T15:39:20.353Z,12.18
2019-03-23T15:41:27.046Z,18.60
2019-03-23T15:43:33.716Z,12.40
2019-03-23T15:45:40.457Z,13.03
2019-03-23T15:47:47.146Z,14.07
2019-03-23T15:49:53.822Z,23.52
2019-03-23T15:52:00.499Z,21.75
2019-03-23T15:54:07.198Z,18.67
2019-03-23T15:56:13.871Z,13.55
2019-03-23T15:58:20.539Z,12.85
2019-03-23T16:00:27.299Z,12.28
2019-03-23T16:02:33.973Z,12.30
2019-03-23T16:04:40.719Z,13.30
2019-03-23T16:06:47.426Z,12.23
2019-03-23T16:08:54.095Z,14.23
2019-03-23T16:11:00.756Z,13.40
2019-03-23T16:13:07.465Z,11.95
2019-03-23T16:15:14.932Z,17.07
2019-03-23T16:17:21.603Z,14.70
2019-03-23T16:19:28.299Z,12.13
2019-03-23T16:21:35.032Z,13.32
2019-03-23T16:23:41.729Z,12.30
2019-03-23T16:25:48.420Z,12.33
2019-03-23T16:27:55.090Z,19.15
2019-03-23T16:30:01.768Z,18.40
2019-03-23T16:32:09.451Z,14.93
2019-03-23T16:34:16.202Z,14.80
2019-03-23T16:36:22.925Z,16.05
2019-03-23T16:38:29.725Z,18.75
2019-03-23T16:40:36.409Z,16.40
2019-03-23T16:42:45.458Z,18.80
2019-03-23T16:44:51.622Z,14.78
2019-03-23T16:46:58.291Z,15.98
2019-03-23T16:49:04.968Z,16.10
2019-03-23T16:51:11.662Z,21.27
2019-03-23T16:53:18.376Z,22.48
2019-03-23T16:55:25.046Z,19.73
2019-03-23T16:57:31.743Z,18.32
2019-03-23T16:59:39.273Z,20.10
2019-03-23T17:01:46.955Z,18.37
2019-03-23T17:03:53.860Z,26.42
2019-03-23T17:06:00.525Z,22.85
2019-03-23T17:08:07.964Z,23.00
2019-03-23T17:10:15.094Z,27.00
2019-03-23T17:12:21.846Z,18.62
2019-03-23T17:14:28.605Z,25.25
2019-03-23T17:16:35.295Z,19.48
2019-03-23T17:18:42.029Z,25.65
2019-03-23T17:20:48.702Z,22.95
2019-03-23T17:22:55.424Z,21.37
2019-03-23T17:25:02.126Z,17.85
2019-03-23T17:27:09.037Z,23.85
2019-03-23T17:29:15.779Z,20.35
2019-03-23T17:31:22.481Z,23.45
2019-03-23T17:33:29.230Z,21.73
2019-03-23T17:35:36.011Z,28.80
2019-03-23T17:37:42.775Z,29.20
2019-03-23T17:39:49.618Z,25.77
2019-03-23T17:41:56.418Z,26.52
2019-03-23T17:44:04.115Z,25.32
2019-03-23T17:46:11.947Z,24.15
2019-03-23T17:48:18.745Z,21.85
2019-03-23T17:50:25.488Z,24.72
2019-03-23T17:52:32.168Z,24.10
2019-03-23T17:54:39.006Z,17.60
2019-03-23T17:56:45.823Z,21.93
2019-03-23T17:58:52.555Z,27.90
2019-03-23T18:00:59.669Z,22.13
2019-03-23T18:03:07.649Z,25.68
2019-03-23T18:05:16.174Z,23.47
2019-03-23T18:07:23.008Z,23.30
2019-03-23T18:09:29.749Z,23.62
2019-03-23T18:11:36.510Z,25.55
2019-03-23T18:13:43.365Z,26.75
2019-03-23T18:15:50.130Z,28.12
2019-03-23T18:17:56.895Z,30.32
2019-03-23T18:20:05.161Z,30.60
2019-03-23T18:22:11.918Z,29.42
2019-03-23T18:24:18.760Z,27.82
2019-03-23T18:26:25.483Z,35.08
2019-03-23T18:28:32.224Z,32.05
2019-03-23T18:30:41.920Z,38.65
2019-03-23T18:32:48.759Z,38.02
2019-03-23T18:34:55.424Z,43.90
2019-03-23T18:37:02.128Z,40.12
2019-03-23T18:39:08.959Z,37.28
2019-03-23T18:41:15.835Z,43.38
2019-03-23T18:43:27.314Z,38.05
2019-03-23T18:45:31.105Z,35.55
2019-03-23T18:47:37.834Z,40.60
2019-03-23T18:49:44.646Z,38.05
2019-03-23T18:51:51.430Z,36.85
2019-03-23T18:53:58.107Z,36.58
2019-03-23T18:56:04.933Z,34.40
2019-03-23T18:58:12.605Z,36.15
2019-03-23T19:00:41.308Z,38.00
2019-03-23T19:02:47.975Z,36.58
2019-03-23T19:04:54.879Z,44.77
2019-03-23T19:07:01.547Z,45.12
2019-03-23T19:09:08.811Z,38.25
2019-03-23T19:11:15.733Z,40.23
2019-03-23T19:13:22.403Z,41.20
2019-03-23T19:15:29.110Z,44.80
2019-03-23T19:17:35.810Z,43.70
2019-03-23T19:19:42.617Z,41.85
2019-03-23T19:21:49.291Z,46.90
2019-03-23T19:23:56.161Z,40.12
2019-03-23T19:26:02.823Z,34.50
2019-03-23T19:28:09.504Z,35.90
2019-03-23T19:30:17.713Z,33.75
2019-03-23T19:32:24.454Z,35.83
2019-03-23T19:34:31.122Z,44.05
2019-03-23T19:36:37.812Z,40.03
2019-03-23T19:38:44.509Z,35.45
2019-03-23T19:40:51.197Z,33.92
2019-03-23T19:42:59.636Z,49.60
2019-03-23T19:45:08.111Z,51.13
2019-03-23T19:47:14.851Z,36.45
2019-03-23T19:49:21.564Z,31.65
2019-03-23T19:51:28.301Z,30.50
2019-03-23T19:53:35.041Z,32.17
2019-03-23T19:55:42.835Z,32.53
2019-03-23T19:57:54.467Z,28.77
2019-03-23T19:59:59.072Z,31.85
2019-03-23T20:02:05.896Z,37.20
2019-03-23T20:04:12.718Z,28.83
2019-03-23T20:06:19.551Z,34.00
2019-03-23T20:08:26.246Z,33.53
2019-03-23T20:10:34.315Z,37.33
2019-03-23T20:12:42.438Z,43.23
2019-03-23T20:14:50.303Z,37.90
2019-03-23T20:16:57.047Z,39.08
2019-03-23T20:19:03.743Z,43.68
2019-03-23T20:21:10.435Z,39.40
2019-03-23T20:23:18.115Z,36.68
2019-03-23T20:25:24.774Z,37.30
2019-03-23T20:27:31.599Z,41.25
2019-03-23T20:29:38.386Z,39.25
2019-03-23T20:31:46.228Z,33.18
2019-03-23T20:33:52.926Z,39.10
2019-03-23T20:35:59.673Z,41.13
2019-03-23T20:38:07.800Z,38.75
2019-03-23T20:40:15.408Z,40.63
2019-03-23T20:42:22.212Z,38.10
2019-03-23T20:44:28.952Z,35.35
2019-03-23T20:46:35.644Z,38.50
2019-03-23T20:48:43.238Z,38.83
2019-03-23T20:50:50.486Z,39.55
2019-03-23T20:52:58.723Z,37.75
2019-03-23T20:55:08.923Z,39.78
2019-03-23T20:57:23.407Z,40.23
2019-03-23T20:59:26.725Z,37.75
2019-03-23T21:01:33.530Z,35.38
2019-03-23T21:03:40.321Z,34.33
2019-03-23T21:05:47.064Z,39.75
2019-03-23T21:07:53.851Z,36.58
2019-03-23T21:10:02.800Z,41.65
2019-03-23T21:12:10.753Z,43.42
2019-03-23T21:14:20.353Z,34.75
2019-03-23T21:16:25.865Z,38.70
2019-03-23T21:18:32.731Z,41.95
2019-03-23T21:20:39.456Z,38.25
2019-03-23T21:22:46.204Z,38.20
2019-03-23T21:24:53.193Z,38.20
2019-03-23T21:26:59.876Z,37.60
2019-03-23T21:29:06.723Z,36.25
2019-03-23T21:31:13.552Z,41.98
2019-03-23T21:33:20.305Z,35.45
2019-03-23T21:35:27.095Z,35.20
2019-03-23T21:37:35.368Z,36.70
2019-03-23T21:39:42.125Z,39.25
2019-03-23T21:41:50.010Z,35.80
2019-03-23T21:43:56.798Z,36.53
2019-03-23T21:46:03.528Z,37.95
2019-03-23T21:48:10.200Z,38.30
2019-03-23T21:50:16.972Z,33.85
2019-03-23T21:52:23.729Z,36.58
2019-03-23T21:54:31.982Z,44.13
2019-03-23T21:56:38.746Z,45.60
2019-03-23T21:58:45.424Z,42.08
2019-03-23T22:00:52.169Z,44.67
2019-03-23T22:02:58.929Z,46.75
2019-03-23T22:05:07.201Z,46.28
2019-03-23T22:07:14.816Z,45.10
2019-03-23T22:09:22.362Z,47.95
2019-03-23T22:11:29.402Z,52.15
2019-03-23T22:13:37.909Z,51.30
2019-03-23T22:15:46.820Z,47.03
2019-03-23T22:19:59.567Z,51.88
2019-03-23T22:22:06.488Z,59.53
2019-03-23T22:24:15.027Z,54.42
2019-03-23T22:26:22.044Z,56.33
2019-03-23T22:28:28.968Z,61.48
2019-03-23T22:30:35.662Z,56.68
2019-03-23T22:32:42.876Z,57.13
2019-03-23T22:34:50.152Z,53.68
2019-03-23T22:36:56.861Z,50.95
2019-03-23T22:39:06.909Z,49.00
2019-03-23T22:41:13.579Z,50.03
2019-03-23T22:43:20.422Z,51.25
2019-03-23T22:45:27.352Z,57.75
2019-03-23T22:47:34.225Z,56.70
2019-03-23T22:49:41.072Z,57.85
2019-03-23T22:51:47.860Z,55.50
2019-03-23T22:53:55.498Z,63.60
2019-03-23T22:56:02.536Z,60.30
2019-03-23T22:58:09.289Z,73.85
2019-03-23T23:00:21.419Z,68.85
2019-03-23T23:02:29.711Z,67.00
2019-03-23T23:04:46.557Z,71.12
2019-03-23T23:07:05.759Z,70.87
2019-03-23T23:09:20.725Z,67.65
2019-03-23T23:11:31.185Z,67.58
2019-03-23T23:13:39.005Z,66.77
2019-03-23T23:15:45.983Z,65.03
2019-03-23T23:17:52.653Z,64.37
2019-03-23T23:19:59.362Z,63.17
2019-03-23T23:22:06.063Z,63.40
2019-03-23T23:24:12.782Z,60.28
2019-03-23T23:26:19.476Z,71.35
2019-03-23T23:28:32.127Z,56.88
2019-03-23T23:30:38.981Z,51.85
2019-03-23T23:32:45.735Z,51.88
2019-03-23T23:34:52.472Z,46.45
2019-03-23T23:37:00.463Z,43.87
2019-03-23T23:39:08.953Z,38.58
2019-03-23T23:41:15.624Z,40.52
2019-03-23T23:43:22.428Z,37.30
2019-03-23T23:45:29.201Z,33.50
2019-03-23T23:47:35.940Z,34.18
2019-03-23T23:49:42.693Z,37.60
2019-03-23T23:51:50.289Z,36.53
2019-03-23T23:53:57.191Z,36.70
2019-03-23T23:56:03.978Z,33.48
2019-03-23T23:58:11.856Z,29.92
